Time;durP1;ratioP1;P1;durP2;ratioP2;P2;SDS_P1;SDS_P2;PMS_P1;PMS_P2;Temp;Humidity;BMP_temperature;BMP_pressure;BME280_temperature;BME280_humidity;BME280_pressure;Samples;Min_cycle;Max_cycle;Signal;HPM_P1;HPM_P2
2023/10/09 00:01:44;;;;;;;1233.13;584.63;;;13.70;99.90;;;;;;5078421;28;20434;-84
2023/10/09 00:04:11;;;;;;;1251.80;590.10;;;13.70;99.90;;;;;;5056380;28;20036;-85
2023/10/09 00:06:37;;;;;;;1258.67;584.87;;;13.80;99.90;;;;;;5056620;28;20040;-84
2023/10/09 00:11:56;;;;;;;1243.87;581.87;;;13.70;99.90;;;;;;5074151;28;20060;-84
2023/10/09 00:14:31;;;;;;;1255.70;560.40;;;13.80;99.90;;;;;;5088257;28;20485;-84
2023/10/09 00:19:38;;;;;;;1246.63;576.60;;;13.70;99.90;;;;;;5093415;28;20126;-85
2023/10/09 00:22:04;;;;;;;1272.23;564.83;;;13.70;99.90;;;;;;5094070;28;20078;-85
2023/10/09 00:24:33;;;;;;;1245.37;572.90;;;13.70;99.90;;;;;;5075993;28;20578;-85
2023/10/09 00:27:11;;;;;;;1243.70;575.13;;;13.70;99.90;;;;;;5093830;28;20048;-85
2023/10/09 00:29:44;;;;;;;1233.00;575.50;;;13.70;99.90;;;;;;5074240;28;20044;-85
2023/10/09 00:32:26;;;;;;;1237.10;572.07;;;13.80;99.90;;;;;;5092141;28;20040;-85
2023/10/09 00:34:53;;;;;;;1233.17;569.17;;;13.70;99.90;;;;;;5086473;28;20048;-85
2023/10/09 00:37:26;;;;;;;1277.30;571.47;;;13.70;99.90;;;;;;5075872;28;20493;-85
2023/10/09 00:39:58;;;;;;;1234.07;572.40;;;13.80;99.90;;;;;;5080886;28;20045;-84
2023/10/09 00:42:29;;;;;;;1271.17;569.13;;;13.80;99.90;;;;;;5055952;28;20048;-84
2023/10/09 00:45:04;;;;;;;1265.00;569.70;;;13.90;99.90;;;;;;5055720;28;20055;-85
2023/10/09 00:47:34;;;;;;;1232.82;569.38;;;13.70;99.90;;;;;;5060762;28;20040;-84
2023/10/09 00:50:36;;;;;;;1262.77;562.50;;;13.80;99.90;;;;;;5093464;28;20071;-84
2023/10/09 00:53:02;;;;;;;1264.57;561.47;;;13.80;99.90;;;;;;5071291;28;20044;-84
2023/10/09 00:55:44;;;;;;;1264.10;563.33;;;13.80;99.90;;;;;;5093448;28;20073;-84
2023/10/09 00:58:14;;;;;;;1220.37;554.07;;;13.80;99.90;;;;;;5074129;28;20044;-84
2023/10/09 01:06:15;;;;;;;1216.80;569.00;;;13.80;99.90;;;;;;5055307;28;20048;-84
2023/10/09 01:11:22;;;;;;;1253.20;564.47;;;13.80;99.90;;;;;;5072847;28;20048;-85
2023/10/09 01:13:52;;;;;;;1246.53;553.43;;;13.80;99.90;;;;;;5073020;28;20044;-84
2023/10/09 01:16:21;;;;;;;1250.83;562.67;;;13.80;99.90;;;;;;5072784;28;20051;-83
2023/10/09 01:18:57;;;;;;;1253.37;556.93;;;14.00;99.90;;;;;;5055046;28;20149;-84
2023/10/09 01:21:24;;;;;;;1252.33;559.43;;;13.80;99.90;;;;;;5055953;28;20528;-84
2023/10/09 01:24:03;;;;;;;1218.07;559.53;;;13.90;99.90;;;;;;5075107;28;20079;-84
2023/10/09 01:26:44;;;;;;;1221.60;566.67;;;14.20;99.90;;;;;;5054483;28;20079;-84
2023/10/09 01:29:17;;;;;;;1250.40;554.73;;;13.90;99.90;;;;;;5068693;28;20041;-85
2023/10/09 01:31:56;;;;;;;1217.17;562.63;;;13.80;99.90;;;;;;5083436;28;20056;-84
2023/10/09 01:37:22;;;;;;;1253.07;558.17;;;14.00;99.90;;;;;;5085539;28;20067;-84
2023/10/09 01:39:50;;;;;;;1251.70;562.37;;;13.90;99.90;;;;;;5038225;28;20048;-84
2023/10/09 01:45:16;;;;;;;1254.87;562.53;;;13.90;99.90;;;;;;5080670;28;20048;-85
2023/10/09 01:47:52;;;;;;;1216.17;558.97;;;13.90;99.90;;;;;;5061304;28;20033;-85
2023/10/09 01:50:20;;;;;;;1225.83;568.57;;;13.90;99.90;;;;;;5079532;28;20048;-85
2023/10/09 01:52:46;;;;;;;1223.70;553.27;;;13.90;99.90;;;;;;5061573;28;20040;-85
2023/10/09 01:55:35;;;;;;;1258.93;566.20;;;13.90;99.90;;;;;;5061133;28;20044;-85
2023/10/09 01:58:24;;;;;;;1218.53;559.97;;;13.80;99.90;;;;;;5079374;28;20044;-85
2023/10/09 02:01:01;;;;;;;1216.33;554.60;;;13.80;99.90;;;;;;5079507;28;20076;-85
2023/10/09 02:03:29;;;;;;;1253.60;561.13;;;13.80;99.90;;;;;;5061429;28;20038;-84
2023/10/09 02:06:02;;;;;;;1221.63;566.57;;;13.80;99.90;;;;;;5061506;28;20036;-84
2023/10/09 02:08:29;;;;;;;1249.33;562.13;;;13.80;99.90;;;;;;5077081;28;20036;-85
2023/10/09 02:10:56;;;;;;;1252.50;560.63;;;13.80;99.90;;;;;;5079350;28;20028;-85
2023/10/09 02:13:34;;;;;;;1220.40;572.40;;;13.90;99.90;;;;;;5079353;28;20114;-85
2023/10/09 02:18:54;;;;;;;1213.63;560.03;;;13.80;99.90;;;;;;5079289;28;20055;-86
2023/10/09 02:21:33;;;;;;;1213.50;561.87;;;13.70;99.90;;;;;;5078948;28;20032;-85
2023/10/09 02:24:04;;;;;;;1220.80;569.00;;;13.80;99.90;;;;;;5079121;28;20083;-85
2023/10/09 02:29:15;;;;;;;1212.90;556.30;;;13.80;99.90;;;;;;5099567;28;20076;-86
2023/10/09 02:31:44;;;;;;;1216.43;559.20;;;13.80;99.90;;;;;;5081244;28;20051;-85
2023/10/09 02:34:10;;;;;;;1215.87;556.07;;;13.80;99.90;;;;;;5099324;28;20040;-85
2023/10/09 02:36:42;;;;;;;1246.00;559.73;;;13.80;99.90;;;;;;5049453;28;20044;-85
2023/10/09 02:39:22;;;;;;;1217.40;562.90;;;14.10;99.90;;;;;;5060753;28;20044;-85
2023/10/09 02:42:01;;;;;;;1249.93;556.63;;;13.80;99.90;;;;;;5072233;28;20527;-85
2023/10/09 02:44:34;;;;;;;1261.00;564.40;;;13.80;99.90;;;;;;5081171;28;20496;-86
2023/10/09 02:47:05;;;;;;;1219.83;559.37;;;14.00;99.90;;;;;;5076752;28;20420;-86
2023/10/09 02:49:30;;;;;;;1261.70;564.93;;;13.80;99.90;;;;;;5078750;28;20101;-85
2023/10/09 02:51:56;;;;;;;1234.13;559.67;;;14.10;99.90;;;;;;5061043;28;20849;-85
2023/10/09 02:57:08;;;;;;;1221.20;563.93;;;13.80;99.90;;;;;;5075314;28;20083;-85
2023/10/09 02:59:34;;;;;;;;;;;13.80;99.90;;;;;;5072563;28;20043;-86
2023/10/09 03:02:00;;;;;;;1221.95;561.08;;;13.90;99.90;;;;;;5058067;28;20732;-85
2023/10/09 03:04:30;;;;;;;1243.87;552.57;;;13.80;99.90;;;;;;5077650;28;20055;-86
2023/10/09 03:07:00;;;;;;;1212.00;547.73;;;13.80;99.90;;;;;;5077442;28;20044;-85
2023/10/09 03:09:27;;;;;;;1235.13;562.63;;;13.90;99.90;;;;;;5089402;28;20044;-85
2023/10/09 03:12:05;;;;;;;1233.37;550.40;;;13.90;99.90;;;;;;5057316;28;20518;-85
2023/10/09 03:14:35;;;;;;;1200.40;556.97;;;13.90;99.90;;;;;;5075359;28;20047;-85
2023/10/09 03:17:01;;;;;;;1231.87;558.50;;;13.90;99.90;;;;;;5057315;28;20040;-85
2023/10/09 03:19:39;;;;;;;1232.93;557.93;;;13.90;99.90;;;;;;5075059;28;20040;-85
2023/10/09 03:22:09;;;;;;;1199.80;555.63;;;14.00;99.90;;;;;;5057237;28;20500;-85
2023/10/09 03:24:36;;;;;;;1203.47;563.57;;;14.00;99.90;;;;;;5040376;28;20091;-85
2023/10/09 03:27:03;;;;;;;1227.53;557.00;;;14.00;99.90;;;;;;5075042;28;20051;-85
2023/10/09 03:29:28;;;;;;;1227.53;558.77;;;14.00;99.90;;;;;;5074894;28;20037;-85
2023/10/09 03:31:56;;;;;;;1233.47;564.53;;;14.00;99.90;;;;;;5081416;28;20097;-85
2023/10/09 03:34:23;;;;;;;1230.90;566.97;;;14.10;99.90;;;;;;5077453;28;20051;-86
2023/10/09 03:36:59;;;;;;;1239.20;567.17;;;14.10;99.90;;;;;;5095010;28;20118;-85
2023/10/09 03:42:04;;;;;;;1197.47;549.50;;;14.10;99.90;;;;;;5094914;28;20075;-86
2023/10/09 03:44:30;;;;;;;1229.23;552.50;;;14.30;99.90;;;;;;5094604;28;20115;-86
2023/10/09 03:46:56;;;;;;;1206.97;566.10;;;14.20;99.90;;;;;;5076314;28;20048;-85
2023/10/09 03:49:25;;;;;;;1202.03;568.23;;;14.20;99.90;;;;;;5060365;28;20094;-86
2023/10/09 03:51:52;;;;;;;1200.17;557.90;;;14.20;99.90;;;;;;5076874;28;20101;-86
2023/10/09 03:54:22;;;;;;;1234.40;560.77;;;14.20;99.90;;;;;;5076771;28;20387;-85
2023/10/09 03:56:51;;;;;;;1232.93;566.93;;;14.20;99.90;;;;;;5075713;28;20546;-86
2023/10/09 03:59:19;;;;;;;1201.47;554.80;;;14.20;99.90;;;;;;5094702;28;20119;-86
2023/10/09 04:01:48;;;;;;;1203.13;570.57;;;14.20;99.90;;;;;;5076840;28;20047;-85
2023/10/09 04:04:14;;;;;;;1233.50;562.90;;;14.30;99.90;;;;;;5094621;28;20048;-85
2023/10/09 04:06:40;;;;;;;1202.87;557.40;;;14.30;99.90;;;;;;5094761;28;20050;-85
2023/10/09 04:14:48;;;;;;;1203.90;567.07;;;14.30;99.90;;;;;;5074623;28;20053;-85
2023/10/09 04:17:33;;;;;;;1200.47;560.50;;;14.50;99.90;;;;;;5061317;28;20036;-85
2023/10/09 04:22:50;;;;;;;1198.97;561.60;;;14.60;99.90;;;;;;5094266;28;20111;-85
2023/10/09 04:25:29;;;;;;;1234.13;566.67;;;14.50;99.90;;;;;;5093828;28;20488;-85
2023/10/09 04:30:42;;;;;;;1200.50;564.25;;;14.60;99.90;;;;;;5071253;28;20056;-85
2023/10/09 04:41:32;;;;;;;1198.23;564.00;;;15.00;99.90;;;;;;5075910;28;20126;-85
2023/10/09 04:44:18;;;;;;;1232.63;566.03;;;14.70;99.90;;;;;;5093913;28;20048;-85
2023/10/09 05:02:57;;;;;;;1203.57;568.73;;;14.90;99.90;;;;;;4995448;28;20384;-85
2023/10/09 05:16:33;;;;;;;1233.13;567.13;;;15.00;99.90;;;;;;4999568;28;20037;-85
2023/10/09 05:19:28;;;;;;;1237.80;572.77;;;15.20;99.90;;;;;;4997845;28;20237;-85
2023/10/09 05:21:58;;;;;;;1203.00;566.23;;;15.00;99.90;;;;;;5014091;28;20127;-85
2023/10/09 05:24:26;;;;;;;1241.37;577.17;;;15.00;99.90;;;;;;5010680;28;20046;-85
2023/10/09 05:26:52;;;;;;;1204.90;570.03;;;15.10;99.90;;;;;;5019274;28;20088;-84
2023/10/09 05:34:36;;;;;;;1206.03;574.97;;;15.10;99.90;;;;;;5073029;28;20059;-86
2023/10/09 05:37:24;;;;;;;1211.70;582.37;;;15.30;99.90;;;;;;5049216;28;20086;-85
2023/10/09 05:42:44;;;;;;;;;;;15.20;99.90;;;;;;5073567;28;20047;-83
2023/10/09 06:03:16;;;;;;;1242.80;574.17;;;15.30;99.90;;;;;;5008295;28;20060;-85
2023/10/09 06:07:49;;;;;;;1208.50;576.80;;;15.30;99.90;;;;;;4968507;28;20412;-87
2023/10/09 06:10:39;;;;;;;1241.10;574.23;;;15.30;99.90;;;;;;4952376;29;20055;-85
2023/10/09 06:13:03;;;;;;;1245.27;579.10;;;15.30;99.90;;;;;;4954444;28;20054;-86
2023/10/09 06:18:33;;;;;;;1215.27;585.43;;;15.40;99.90;;;;;;4971360;28;20057;-85
2023/10/09 06:24:09;;;;;;;1242.20;576.60;;;15.40;99.90;;;;;;4955382;28;20051;-82
2023/10/09 06:26:32;;;;;;;1213.80;584.33;;;15.40;99.90;;;;;;4954963;28;20058;-87
2023/10/09 06:29:30;;;;;;;1209.70;582.70;;;15.40;99.90;;;;;;4953325;28;20055;-85
2023/10/09 06:32:16;;;;;;;1240.70;575.10;;;15.40;99.90;;;;;;4968824;28;20451;-90
2023/10/09 06:34:51;;;;;;;1208.23;572.63;;;15.50;99.90;;;;;;4975274;28;20050;-84
2023/10/09 06:42:33;;;;;;;1210.27;582.17;;;15.50;99.90;;;;;;5055522;28;20103;-85
2023/10/09 06:45:20;;;;;;;1211.13;587.53;;;15.50;99.90;;;;;;5056535;28;20052;-87
2023/10/09 06:48:07;;;;;;;1210.97;583.80;;;15.50;99.90;;;;;;5043192;28;20044;-82
2023/10/09 06:53:19;;;;;;;1209.40;580.53;;;15.50;99.90;;;;;;5055404;28;20088;-85
2023/10/09 06:55:49;;;;;;;1210.10;583.97;;;15.60;99.90;;;;;;5037490;28;20041;-83
2023/10/09 06:58:26;;;;;;;1246.17;583.93;;;15.60;99.90;;;;;;5037501;28;20166;-84
2023/10/09 07:03:51;;;;;;;1209.88;582.55;;;15.60;99.90;;;;;;5057305;28;20186;-84
2023/10/09 07:06:24;;;;;;;1213.13;592.23;;;15.60;99.90;;;;;;5063485;28;20056;-83
2023/10/09 07:14:06;;;;;;;1242.40;576.47;;;15.70;99.90;;;;;;5075028;28;20052;-83
2023/10/09 07:16:38;;;;;;;1214.07;594.87;;;15.70;99.90;;;;;;5075065;28;20404;-82
2023/10/09 07:19:09;;;;;;;1209.93;584.37;;;15.70;99.90;;;;;;5074492;28;20131;-82
2023/10/09 07:21:38;;;;;;;1209.03;583.90;;;15.70;99.90;;;;;;5075080;28;20401;-82
2023/10/09 07:24:14;;;;;;;1208.87;582.97;;;15.80;99.90;;;;;;5073926;28;20101;-82
2023/10/09 07:26:47;;;;;;;;;;;15.80;99.90;;;;;;5056612;28;20086;-82
2023/10/09 07:29:16;;;;;;;1238.70;570.67;;;15.80;99.90;;;;;;5053628;28;19964;-82
2023/10/09 07:31:47;;;;;;;1243.47;576.80;;;15.80;99.90;;;;;;5055203;28;20052;-82
2023/10/09 07:34:31;;;;;;;1216.17;592.00;;;15.80;99.90;;;;;;5066675;28;20374;-82
2023/10/09 07:36:56;;;;;;;1245.27;580.27;;;15.80;99.90;;;;;;5073930;28;20543;-83
2023/10/09 07:39:22;;;;;;;1242.10;577.23;;;15.80;99.90;;;;;;5073965;28;20084;-83
2023/10/09 07:42:15;;;;;;;1215.70;594.83;;;15.80;99.90;;;;;;5074746;28;20036;-83
2023/10/09 07:44:46;;;;;;;1245.93;579.63;;;15.80;99.90;;;;;;5064800;28;20052;-82
2023/10/09 07:47:18;;;;;;;1213.60;588.93;;;16.00;99.90;;;;;;5074519;28;20090;-82
2023/10/09 07:49:48;;;;;;;1210.63;595.40;;;15.90;99.90;;;;;;5074292;28;20150;-83
2023/10/09 07:52:15;;;;;;;1247.13;582.40;;;15.90;99.90;;;;;;5068021;28;20049;-83
2023/10/09 07:54:49;;;;;;;1216.27;596.30;;;15.90;99.90;;;;;;5075086;28;20051;-83
2023/10/09 07:57:28;;;;;;;1211.30;588.47;;;15.90;99.90;;;;;;5074316;28;20207;-83
2023/10/09 07:59:59;;;;;;;1211.97;595.13;;;15.90;99.90;;;;;;5039659;28;20044;-83
2023/10/09 08:02:33;;;;;;;1247.10;583.20;;;15.90;99.90;;;;;;5074426;28;20051;-85
2023/10/09 08:05:04;;;;;;;1243.90;579.37;;;15.90;99.90;;;;;;5075479;28;20044;-85
2023/10/09 08:07:37;;;;;;;1247.27;579.73;;;16.00;99.90;;;;;;5056472;28;20929;-86
2023/10/09 08:18:03;;;;;;;1216.47;599.50;;;16.00;99.90;;;;;;4992366;28;20133;-83
2023/10/09 08:20:51;;;;;;;1247.73;580.73;;;16.00;99.90;;;;;;4976548;28;20058;-83
2023/10/09 08:23:33;;;;;;;1215.43;592.97;;;16.00;99.90;;;;;;4992250;28;20077;-83
2023/10/09 08:26:14;;;;;;;1242.97;581.60;;;16.00;99.90;;;;;;4975142;28;20185;-83
2023/10/09 08:28:42;;;;;;;1245.97;581.53;;;16.00;99.90;;;;;;4984537;28;20133;-83
2023/10/09 08:31:34;;;;;;;1246.47;575.37;;;16.10;99.90;;;;;;4975888;28;20062;-85
2023/10/09 08:34:03;;;;;;;1218.10;601.23;;;16.20;99.90;;;;;;4969693;28;20520;-84
2023/10/09 08:36:36;;;;;;;1245.93;582.23;;;16.20;99.90;;;;;;4976025;28;20054;-84
2023/10/09 08:39:16;;;;;;;1214.47;600.97;;;16.20;99.90;;;;;;4975853;28;20053;-84
2023/10/09 08:41:42;;;;;;;1218.90;611.03;;;16.30;99.90;;;;;;4975688;28;20126;-88
2023/10/09 08:44:14;;;;;;;1211.67;591.63;;;16.30;99.90;;;;;;4988504;28;20042;-85
2023/10/09 08:46:42;;;;;;;1217.20;600.53;;;16.30;99.90;;;;;;4975816;28;20054;-84
2023/10/09 08:49:10;;;;;;;1244.70;581.57;;;16.30;99.90;;;;;;4975894;28;20057;-84
2023/10/09 08:51:37;;;;;;;1211.27;597.50;;;16.30;99.90;;;;;;4990868;28;20046;-85
2023/10/09 08:54:04;;;;;;;1250.67;581.00;;;16.30;99.90;;;;;;5018162;28;20126;-85
2023/10/09 08:56:30;;;;;;;1248.87;582.77;;;16.30;99.90;;;;;;5093399;28;20113;-83
2023/10/09 08:58:58;;;;;;;1215.43;603.50;;;16.30;99.90;;;;;;5071546;28;20044;-85
2023/10/09 09:01:24;;;;;;;1215.07;602.33;;;16.30;99.90;;;;;;5078081;28;20542;-83
2023/10/09 09:03:51;;;;;;;1245.63;577.13;;;16.30;99.90;;;;;;5055588;28;20495;-84
2023/10/09 09:06:21;;;;;;;1219.47;613.60;;;16.40;99.90;;;;;;5055737;28;20043;-84
2023/10/09 09:08:47;;;;;;;1216.67;606.10;;;16.40;99.90;;;;;;5072119;28;20127;-84
2023/10/09 09:11:23;;;;;;;1217.57;606.40;;;16.40;99.90;;;;;;5072928;28;20028;-84
2023/10/09 09:13:48;;;;;;;;;;;16.40;99.90;;;;;;5075534;28;20499;-83
2023/10/09 09:16:36;;;;;;;1216.28;604.53;;;16.50;99.90;;;;;;5075551;28;19916;-84
2023/10/09 09:21:43;;;;;;;1245.30;579.93;;;16.60;99.90;;;;;;5077118;28;20082;-85
2023/10/09 09:26:59;;;;;;;1219.23;611.10;;;16.60;99.90;;;;;;5059585;28;20056;-86
2023/10/09 09:30:07;;;;;;;1259.97;586.90;;;16.70;99.90;;;;;;5075891;28;20080;-85
2023/10/09 09:32:36;;;;;;;1255.70;588.77;;;16.70;99.90;;;;;;5085046;28;20059;-84
2023/10/09 09:35:04;;;;;;;1251.80;581.90;;;16.80;99.90;;;;;;5083059;28;20100;-86
2023/10/09 09:37:46;;;;;;;1228.87;621.67;;;16.80;99.90;;;;;;5061575;28;20041;-85
2023/10/09 09:40:15;;;;;;;1254.87;587.07;;;16.90;99.90;;;;;;5068469;28;20118;-87
2023/10/09 09:42:50;;;;;;;1223.20;620.63;;;17.00;99.90;;;;;;5086212;28;20036;-86
2023/10/09 09:45:16;;;;;;;1257.07;585.27;;;17.00;99.90;;;;;;5067237;28;20056;-85
2023/10/09 09:47:51;;;;;;;1227.97;624.77;;;17.00;99.90;;;;;;5066816;28;20120;-85
2023/10/09 09:50:29;;;;;;;1258.30;590.10;;;17.00;99.90;;;;;;5084151;28;20044;-85
2023/10/09 09:52:55;;;;;;;1230.13;615.67;;;17.00;99.90;;;;;;5048890;28;20100;-86
2023/10/09 09:55:30;;;;;;;1231.03;629.50;;;17.00;99.90;;;;;;5078922;28;20066;-86
2023/10/09 09:57:57;;;;;;;1259.28;595.15;;;17.00;99.90;;;;;;5075551;28;20056;-85
2023/10/09 10:03:29;;;;;;;1236.37;628.57;;;17.00;99.90;;;;;;5086911;28;20123;-86
2023/10/09 10:05:57;;;;;;;1263.43;586.40;;;17.00;99.90;;;;;;5079144;28;20073;-85
2023/10/09 10:08:32;;;;;;;1229.73;629.17;;;17.00;99.90;;;;;;5097430;28;20048;-86
2023/10/09 10:11:13;;;;;;;1262.27;590.13;;;17.00;99.90;;;;;;5078679;28;20118;-85
2023/10/09 10:13:42;;;;;;;1235.10;618.40;;;17.00;99.90;;;;;;5078926;28;20060;-86
2023/10/09 10:16:19;;;;;;;1268.80;590.70;;;17.10;99.90;;;;;;5077648;28;20089;-86
2023/10/09 10:19:06;;;;;;;1233.30;623.40;;;17.20;99.90;;;;;;5078067;28;20098;-86
2023/10/09 10:21:40;;;;;;;1263.10;589.10;;;17.20;99.90;;;;;;5077816;28;20044;-86
2023/10/09 10:24:32;;;;;;;1232.07;612.77;;;17.10;99.90;;;;;;5096691;28;20076;-86
2023/10/09 10:27:11;;;;;;;1261.87;584.23;;;17.10;99.90;;;;;;5094324;28;20051;-86
2023/10/09 10:29:38;;;;;;;1266.47;590.27;;;17.10;99.90;;;;;;5061743;28;20090;-86
2023/10/09 10:32:08;;;;;;;1263.83;585.30;;;17.10;99.90;;;;;;5096055;28;20040;-85
2023/10/09 10:34:58;;;;;;;1259.83;583.77;;;17.10;99.90;;;;;;5071827;28;20044;-84
2023/10/09 10:37:44;;;;;;;1228.90;610.57;;;17.00;99.90;;;;;;5086969;28;20385;-91
2023/10/09 10:40:37;;;;;;;1231.37;622.70;;;17.10;99.90;;;;;;5078650;28;20043;-87
2023/10/09 10:43:19;;;;;;;1226.73;606.70;;;17.10;99.90;;;;;;5077904;28;20052;-87
2023/10/09 10:45:45;;;;;;;1262.33;585.07;;;17.10;99.90;;;;;;5078621;28;20072;-89
2023/10/09 10:48:37;;;;;;;1259.33;581.37;;;17.20;99.90;;;;;;5096365;28;20129;-87
2023/10/09 10:51:03;;;;;;;1230.23;606.87;;;17.10;99.90;;;;;;5077919;28;20618;-86
2023/10/09 10:53:47;;;;;;;1230.93;618.67;;;17.10;99.90;;;;;;5077895;28;20105;-85
2023/10/09 10:58:53;;;;;;;1265.00;586.33;;;17.10;99.90;;;;;;5094705;28;20445;-86
2023/10/09 11:01:19;;;;;;;1261.13;584.23;;;17.10;99.90;;;;;;5077769;28;20040;-86
2023/10/09 11:06:36;;;;;;;1264.87;580.37;;;17.10;99.90;;;;;;5077775;28;20059;-87
2023/10/09 11:09:20;;;;;;;1230.90;600.63;;;17.10;99.90;;;;;;5077515;28;20290;-89
2023/10/09 11:11:55;;;;;;;1269.27;587.57;;;17.10;99.90;;;;;;5077642;28;20051;-88
2023/10/09 11:14:23;;;;;;;1264.57;584.70;;;17.20;99.90;;;;;;5059946;28;20076;-86
2023/10/09 11:16:57;;;;;;;1230.33;607.70;;;17.10;99.90;;;;;;5077738;28;20094;-86
2023/10/09 11:24:34;;;;;;;1263.40;585.30;;;17.20;99.90;;;;;;5077228;28;20131;-85
2023/10/09 11:27:08;;;;;;;1262.47;588.37;;;17.30;99.90;;;;;;5076970;28;20052;-88
2023/10/09 11:32:25;;;;;;;1261.67;581.03;;;17.40;99.90;;;;;;5093761;28;20506;-89
2023/10/09 11:35:09;;;;;;;1230.07;621.83;;;17.50;99.90;;;;;;5095832;28;20409;-87
2023/10/09 11:37:44;;;;;;;1262.93;586.27;;;17.60;99.90;;;;;;5079043;28;20062;-90
2023/10/09 11:43:17;;;;;;;1230.47;628.00;;;17.60;99.90;;;;;;4993325;28;20058;-88
2023/10/09 11:45:54;;;;;;;1267.70;588.33;;;17.60;99.90;;;;;;4976971;28;20486;-87
2023/10/09 11:49:25;;;;;;;1267.37;583.43;;;17.60;99.90;;;;;;4993577;28;20499;-88
2023/10/09 11:51:18;;;;;;;1265.57;582.93;;;17.60;99.90;;;;;;4989453;28;20207;-86
2023/10/09 11:53:54;;;;;;;1236.43;618.90;;;17.60;99.90;;;;;;4977808;28;20058;-86
2023/10/09 11:56:26;;;;;;;1264.47;589.10;;;17.60;99.90;;;;;;4960588;28;20050;-89
2023/10/09 11:58:54;;;;;;;1266.40;584.33;;;17.50;99.90;;;;;;4970097;28;20057;-86
2023/10/09 12:01:21;;;;;;;1266.23;586.47;;;17.60;99.90;;;;;;4993123;28;20052;-87
2023/10/09 12:03:52;;;;;;;1243.60;628.57;;;17.50;99.90;;;;;;4975176;28;20089;-86
2023/10/09 12:06:32;;;;;;;1238.33;627.43;;;17.50;99.90;;;;;;4981836;28;20058;-88
2023/10/09 12:08:58;;;;;;;1233.57;616.90;;;17.50;99.90;;;;;;4963264;28;20100;-89
2023/10/09 12:11:28;;;;;;;1275.50;588.03;;;17.30;99.90;;;;;;4992695;28;20077;-88
2023/10/09 12:13:58;;;;;;;1275.00;590.80;;;17.40;99.90;;;;;;4979416;28;20133;-88
2023/10/09 12:16:27;;;;;;;1274.73;583.70;;;17.30;99.90;;;;;;4977497;28;20058;-90
2023/10/09 12:18:57;;;;;;;1274.77;580.13;;;17.20;99.90;;;;;;5019530;28;20095;-86
2023/10/09 12:21:23;;;;;;;1275.80;586.87;;;17.20;99.90;;;;;;5094606;28;20393;-84
2023/10/09 12:23:49;;;;;;;1275.10;592.23;;;17.30;99.90;;;;;;5094227;28;20044;-84
2023/10/09 12:26:14;;;;;;;1271.23;586.40;;;17.20;99.90;;;;;;5068385;28;20056;-86
2023/10/09 12:28:45;;;;;;;1231.40;607.23;;;17.20;99.90;;;;;;5056200;28;20055;-87
2023/10/09 12:31:24;;;;;;;1233.77;610.10;;;17.20;99.90;;;;;;5040030;28;20404;-90
2023/10/09 12:33:51;;;;;;;1266.73;584.40;;;17.40;99.90;;;;;;5062671;28;20048;-92
2023/10/09 12:36:19;;;;;;;1266.77;587.90;;;17.30;99.90;;;;;;5057548;28;20167;-85
2023/10/09 12:38:58;;;;;;;1230.50;614.93;;;17.40;99.90;;;;;;5073979;28;20157;-91
2023/10/09 12:41:28;;;;;;;1230.70;619.20;;;17.50;99.90;;;;;;5074741;28;20045;-91
2023/10/09 12:43:54;;;;;;;1267.07;588.90;;;17.60;99.90;;;;;;5073684;28;20052;-88
2023/10/09 12:46:25;;;;;;;1263.73;581.53;;;17.50;99.90;;;;;;5056149;28;20043;-90
2023/10/09 12:48:54;;;;;;;1267.17;590.23;;;17.60;99.90;;;;;;5074339;28;20048;-88
2023/10/09 12:51:22;;;;;;;1268.13;587.03;;;17.60;99.90;;;;;;5073949;28;20093;-90
2023/10/09 12:53:57;;;;;;;1233.07;611.00;;;17.60;99.90;;;;;;5056399;28;20049;-87
2023/10/09 12:56:32;;;;;;;1266.90;586.23;;;17.60;99.90;;;;;;5055744;28;20384;-82
2023/10/09 12:59:01;;;;;;;1229.43;614.67;;;17.50;99.90;;;;;;5073980;28;20051;-83
2023/10/09 13:01:42;;;;;;;1264.93;586.80;;;17.40;99.90;;;;;;5055987;28;20055;-85
2023/10/09 13:04:14;;;;;;;1224.73;609.53;;;17.50;99.90;;;;;;5055745;28;20401;-82
2023/10/09 13:06:45;;;;;;;1262.33;578.83;;;17.40;99.90;;;;;;5056848;28;20124;-82
2023/10/09 13:09:16;;;;;;;1232.13;613.27;;;17.40;99.90;;;;;;5073529;28;20435;-84
2023/10/09 13:11:48;;;;;;;1264.57;575.30;;;17.50;99.90;;;;;;5038904;28;20079;-82
2023/10/09 13:14:21;;;;;;;1261.67;578.67;;;17.60;99.90;;;;;;5074554;28;20028;-85
2023/10/09 13:16:50;;;;;;;1226.77;617.23;;;17.60;99.90;;;;;;5073868;28;20041;-82
2023/10/09 13:19:17;;;;;;;1266.93;586.63;;;17.50;99.90;;;;;;5055255;28;20053;-84
2023/10/09 13:21:43;;;;;;;1270.50;588.20;;;17.50;99.90;;;;;;5073169;28;20059;-87
2023/10/09 13:24:13;;;;;;;1273.67;592.23;;;17.50;99.90;;;;;;5073518;28;20048;-86
2023/10/09 13:26:46;;;;;;;1226.90;604.50;;;17.50;99.90;;;;;;5072547;28;20040;-82
2023/10/09 13:29:13;;;;;;;1271.97;587.97;;;17.50;99.90;;;;;;5093325;28;20047;-83
2023/10/09 13:31:46;;;;;;;1231.70;617.83;;;17.40;99.90;;;;;;5093687;28;20463;-85
2023/10/09 13:34:15;;;;;;;1276.03;591.10;;;17.30;99.90;;;;;;5075768;28;20047;-84
2023/10/09 13:36:49;;;;;;;1264.10;571.00;;;17.30;99.90;;;;;;5094101;28;20047;-84
2023/10/09 13:39:24;;;;;;;1238.15;614.55;;;17.30;99.90;;;;;;5093773;28;20047;-89
2023/10/09 13:41:58;;;;;;;1231.22;608.47;;;17.30;99.90;;;;;;5076509;28;20503;-93
2023/10/09 13:44:30;;;;;;;1233.87;616.70;;;17.30;99.90;;;;;;5075634;28;20204;-85
2023/10/09 13:47:01;;;;;;;1272.20;591.70;;;17.30;99.90;;;;;;5077499;28;20059;-90
2023/10/09 13:49:30;;;;;;;1233.40;623.00;;;17.20;99.90;;;;;;5073994;28;20052;-89
2023/10/09 13:51:56;;;;;;;1271.20;582.03;;;17.10;99.90;;;;;;5094008;28;20043;-91
2023/10/09 13:57:04;;;;;;;1273.87;587.87;;;17.20;99.90;;;;;;5074651;28;20036;-91
2023/10/09 13:59:30;;;;;;;1237.80;616.07;;;17.10;99.90;;;;;;5073934;28;20055;-92
2023/10/09 14:01:59;;;;;;;1238.83;621.80;;;17.20;99.90;;;;;;5074188;28;20047;-91
2023/10/09 14:04:26;;;;;;;1274.17;593.57;;;17.20;99.90;;;;;;5057066;28;20063;-89
2023/10/09 14:06:59;;;;;;;1237.53;624.30;;;17.30;99.90;;;;;;5074016;28;20044;-92
2023/10/09 14:09:31;;;;;;;1237.73;616.97;;;17.30;99.90;;;;;;5073880;28;20507;-89
2023/10/09 14:12:07;;;;;;;1234.80;625.60;;;17.30;99.90;;;;;;5074699;28;20078;-89
2023/10/09 14:14:47;;;;;;;1231.50;620.33;;;17.30;99.90;;;;;;5054749;28;20123;-90
2023/10/09 14:17:19;;;;;;;1271.67;587.43;;;17.40;99.90;;;;;;5072810;28;20124;-90
2023/10/09 14:19:47;;;;;;;1232.80;614.83;;;17.40;99.90;;;;;;5056799;28;20122;-85
2023/10/09 14:22:18;;;;;;;1267.20;573.70;;;17.40;99.90;;;;;;5072159;28;20059;-85
2023/10/09 14:24:45;;;;;;;1271.63;583.57;;;17.40;99.90;;;;;;5053974;28;20492;-85
2023/10/09 14:27:17;;;;;;;1233.47;620.47;;;17.40;99.90;;;;;;5090872;28;20119;-82
2023/10/09 14:29:47;;;;;;;1227.10;617.20;;;17.30;99.90;;;;;;5074558;28;20036;-83
2023/10/09 14:32:14;;;;;;;1269.23;584.90;;;17.30;99.90;;;;;;5092318;28;20044;-86
2023/10/09 14:34:49;;;;;;;1267.17;584.30;;;17.40;99.90;;;;;;5092443;28;20032;-85
2023/10/09 14:37:19;;;;;;;1269.37;580.67;;;17.40;99.90;;;;;;5074274;28;20108;-84
2023/10/09 14:39:48;;;;;;;1229.17;613.53;;;17.40;99.90;;;;;;5091577;28;20136;-83
2023/10/09 14:42:17;;;;;;;1236.33;618.70;;;17.30;99.90;;;;;;5074384;28;20167;-84
2023/10/09 14:44:45;;;;;;;1237.57;622.47;;;17.40;99.90;;;;;;5093127;28;20492;-85
2023/10/09 14:47:10;;;;;;;1271.40;583.37;;;17.40;99.90;;;;;;5056461;28;20382;-82
2023/10/09 14:49:39;;;;;;;1268.63;583.97;;;17.40;99.90;;;;;;5053234;28;20049;-83
2023/10/09 14:52:08;;;;;;;1275.50;592.70;;;17.40;99.90;;;;;;5074979;28;20041;-83
2023/10/09 14:54:34;;;;;;;1274.63;590.53;;;17.40;99.90;;;;;;5084879;28;20068;-83
2023/10/09 14:57:00;;;;;;;1243.23;636.50;;;17.50;99.90;;;;;;5087363;28;20044;-84
2023/10/09 14:59:25;;;;;;;1271.83;590.07;;;17.50;99.90;;;;;;5075014;28;20045;-83
2023/10/09 15:01:53;;;;;;;1231.40;618.87;;;17.50;99.90;;;;;;5057327;28;20078;-82
2023/10/09 15:04:19;;;;;;;1269.17;590.53;;;17.50;99.90;;;;;;5075541;28;20045;-81
2023/10/09 15:06:49;;;;;;;1269.20;591.87;;;17.50;99.90;;;;;;5075212;28;20060;-82
2023/10/09 15:09:28;;;;;;;1269.27;583.67;;;17.50;99.90;;;;;;5076461;28;20416;-83